createdAt,value
2022-08-26T00:01:52.725Z,13.70
2022-08-26T00:04:21.523Z,13.60
2022-08-26T00:06:48.596Z,13.67
2022-08-26T00:09:16.225Z,13.53
2022-08-26T00:11:47.209Z,13.53
2022-08-26T00:14:16.347Z,13.73
2022-08-26T00:16:48.082Z,13.73
2022-08-26T00:19:20.488Z,13.93
2022-08-26T00:21:49.687Z,13.47
2022-08-26T00:24:19.403Z,14.03
2022-08-26T00:26:46.997Z,13.80
2022-08-26T00:29:14.974Z,14.03
2022-08-26T00:31:42.886Z,13.73
2022-08-26T00:34:12.769Z,14.30
2022-08-26T00:36:41.004Z,14.10
2022-08-26T00:39:08.918Z,14.57
2022-08-26T00:41:39.889Z,13.90
2022-08-26T00:44:08.091Z,13.83
2022-08-26T00:46:40.523Z,14.07
2022-08-26T00:49:18.316Z,14.27
2022-08-26T00:51:53.472Z,14.17
2022-08-26T00:54:23.184Z,14.07
2022-08-26T00:57:00.318Z,14.27
2022-08-26T00:59:32.708Z,13.87
2022-08-26T01:02:02.931Z,13.67
2022-08-26T01:04:33.599Z,13.90
2022-08-26T01:07:01.596Z,14.00
2022-08-26T01:09:30.110Z,13.90
2022-08-26T01:12:00.482Z,13.90
2022-08-26T01:14:35.017Z,14.07
2022-08-26T01:17:07.219Z,14.20
2022-08-26T01:19:46.981Z,13.97
2022-08-26T01:22:46.238Z,14.00
2022-08-26T01:25:14.734Z,15.97
2022-08-26T01:27:42.255Z,14.27
2022-08-26T01:30:12.326Z,14.60
2022-08-26T01:32:40.596Z,13.80
2022-08-26T01:35:08.826Z,14.30
2022-08-26T01:37:39.011Z,13.93
2022-08-26T01:40:11.280Z,13.70
2022-08-26T01:42:40.704Z,14.03
2022-08-26T01:45:12.594Z,14.33
2022-08-26T01:47:41.421Z,13.90
2022-08-26T01:50:13.301Z,13.93
2022-08-26T01:52:49.982Z,13.80
2022-08-26T01:55:32.146Z,14.10
2022-08-26T01:58:04.851Z,14.13
2022-08-26T02:00:34.253Z,14.10
2022-08-26T02:03:18.109Z,14.00
2022-08-26T02:05:59.337Z,13.97
2022-08-26T02:08:36.961Z,13.77
2022-08-26T02:11:05.079Z,14.47
2022-08-26T02:13:38.231Z,13.70
2022-08-26T02:16:05.864Z,13.60
2022-08-26T02:18:38.582Z,13.70
2022-08-26T02:21:07.648Z,13.60
2022-08-26T02:23:35.831Z,13.67
2022-08-26T02:26:19.179Z,13.63
2022-08-26T02:28:56.519Z,13.60
2022-08-26T02:31:24.652Z,14.13
2022-08-26T02:33:51.622Z,14.00
2022-08-26T02:36:21.331Z,14.27
2022-08-26T02:38:48.276Z,14.23
2022-08-26T02:41:15.211Z,14.50
2022-08-26T02:43:44.987Z,14.60
2022-08-26T02:46:11.942Z,15.03
2022-08-26T02:48:48.485Z,14.20
2022-08-26T02:51:15.608Z,14.40
2022-08-26T02:53:43.708Z,13.80
2022-08-26T02:56:10.935Z,14.00
2022-08-26T02:58:37.864Z,14.40
2022-08-26T03:01:05.337Z,14.90
2022-08-26T03:03:33.643Z,14.00
2022-08-26T03:06:01.209Z,15.07
2022-08-26T03:08:28.166Z,14.03
2022-08-26T03:10:55.081Z,14.10
2022-08-26T03:13:21.990Z,14.50
2022-08-26T03:15:49.179Z,14.27
2022-08-26T03:18:16.289Z,14.53
2022-08-26T03:20:43.979Z,14.10
2022-08-26T03:23:12.560Z,14.10
2022-08-26T03:25:39.978Z,14.17
2022-08-26T03:28:07.768Z,14.23
2022-08-26T03:30:45.305Z,14.20
2022-08-26T03:33:14.037Z,14.20
2022-08-26T03:35:43.583Z,14.13
2022-08-26T03:38:11.390Z,13.73
2022-08-26T03:40:39.297Z,13.70
2022-08-26T03:43:09.493Z,14.27
2022-08-26T03:45:37.539Z,14.43
2022-08-26T03:48:05.328Z,14.30
2022-08-26T03:50:34.284Z,14.27
2022-08-26T03:53:03.369Z,14.20
2022-08-26T03:55:32.670Z,14.03
2022-08-26T03:58:01.101Z,14.10
2022-08-26T04:00:28.594Z,14.20
2022-08-26T04:02:55.642Z,13.50
2022-08-26T04:05:23.735Z,13.43
2022-08-26T04:07:51.963Z,14.10
2022-08-26T04:10:28.582Z,14.47
2022-08-26T04:12:56.262Z,14.60
2022-08-26T04:15:26.948Z,13.73
2022-08-26T04:17:54.002Z,14.30
2022-08-26T04:20:22.926Z,14.07
2022-08-26T04:22:50.762Z,14.27
2022-08-26T04:25:18.661Z,13.90
2022-08-26T04:27:48.313Z,13.87
2022-08-26T04:30:16.701Z,13.70
2022-08-26T04:32:43.919Z,13.60
2022-08-26T04:35:10.932Z,13.80
2022-08-26T04:37:38.197Z,14.13
2022-08-26T04:40:06.536Z,13.73
2022-08-26T04:42:33.692Z,14.70
2022-08-26T04:45:01.338Z,14.27
2022-08-26T04:47:32.661Z,14.00
2022-08-26T04:50:00.130Z,14.80
2022-08-26T04:52:29.079Z,14.50
2022-08-26T04:54:57.893Z,14.50
2022-08-26T04:57:24.788Z,14.60
2022-08-26T04:59:51.632Z,14.40
2022-08-26T05:02:18.510Z,14.83
2022-08-26T05:04:45.835Z,15.17
2022-08-26T05:07:12.938Z,15.20
2022-08-26T05:09:40.852Z,14.90
2022-08-26T05:12:08.241Z,14.30
2022-08-26T05:14:36.021Z,14.63
2022-08-26T05:17:03.247Z,14.60
2022-08-26T05:19:31.697Z,14.73
2022-08-26T05:21:59.994Z,14.70
2022-08-26T05:24:26.874Z,14.60
2022-08-26T05:26:54.379Z,14.33
2022-08-26T05:29:23.628Z,14.03
2022-08-26T05:31:52.064Z,14.03
2022-08-26T05:34:19.269Z,14.70
2022-08-26T05:36:47.546Z,14.50
2022-08-26T05:39:14.392Z,14.00
2022-08-26T05:41:43.228Z,14.03
2022-08-26T05:44:14.879Z,14.20
2022-08-26T05:46:44.833Z,14.00
2022-08-26T05:49:13.760Z,14.23
2022-08-26T05:51:47.524Z,14.00
2022-08-26T05:54:21.284Z,14.13
2022-08-26T05:56:50.804Z,14.50
2022-08-26T05:59:21.232Z,14.10
2022-08-26T06:01:52.254Z,14.17
2022-08-26T06:04:20.049Z,14.40
2022-08-26T06:06:47.233Z,14.30
2022-08-26T06:09:14.540Z,14.17
2022-08-26T06:11:44.510Z,14.03
2022-08-26T06:14:11.772Z,13.93
2022-08-26T06:16:43.910Z,14.60
2022-08-26T06:19:13.604Z,13.73
2022-08-26T06:21:42.237Z,14.10
2022-08-26T06:24:32.210Z,14.27
2022-08-26T06:27:02.516Z,13.73
2022-08-26T06:29:34.430Z,13.93
2022-08-26T06:32:04.286Z,13.93
2022-08-26T06:34:31.609Z,14.20
2022-08-26T06:37:02.721Z,14.30
2022-08-26T06:39:31.464Z,13.93
2022-08-26T06:41:59.562Z,14.17
2022-08-26T06:44:27.252Z,14.00
2022-08-26T06:46:54.300Z,14.30
2022-08-26T06:49:26.616Z,14.80
2022-08-26T06:52:00.869Z,14.33
2022-08-26T06:54:31.622Z,14.73
2022-08-26T06:56:58.896Z,14.63
2022-08-26T06:59:26.017Z,14.97
2022-08-26T07:01:54.910Z,15.80
2022-08-26T07:04:23.262Z,14.97
2022-08-26T07:06:52.985Z,15.10
2022-08-26T07:09:21.982Z,15.47
2022-08-26T07:11:51.346Z,14.60
2022-08-26T07:14:19.296Z,14.97
2022-08-26T07:16:49.683Z,15.30
2022-08-26T07:19:30.482Z,15.73
2022-08-26T07:22:04.791Z,15.80
2022-08-26T07:24:35.440Z,15.10
2022-08-26T07:27:05.651Z,15.10
2022-08-26T07:29:33.329Z,15.33
2022-08-26T07:32:00.546Z,14.97
2022-08-26T07:34:27.896Z,15.07
2022-08-26T07:36:57.025Z,15.07
2022-08-26T07:39:25.214Z,15.53
2022-08-26T07:41:52.950Z,15.70
2022-08-26T07:44:19.964Z,16.07
2022-08-26T07:46:52.368Z,14.90
2022-08-26T07:49:22.222Z,14.53
2022-08-26T07:51:50.391Z,15.00
2022-08-26T07:54:17.948Z,15.30
2022-08-26T07:56:46.369Z,14.63
2022-08-26T07:59:15.128Z,13.37
2022-08-26T08:01:44.731Z,13.33
2022-08-26T08:04:17.356Z,13.87
2022-08-26T08:06:45.622Z,14.17
2022-08-26T08:09:15.599Z,14.10
2022-08-26T08:11:44.966Z,14.43
2022-08-26T08:14:13.106Z,14.00
2022-08-26T08:16:45.904Z,13.63
2022-08-26T08:19:14.829Z,15.07
2022-08-26T08:21:43.362Z,14.00
2022-08-26T08:24:11.315Z,14.30
2022-08-26T08:26:38.398Z,14.37
2022-08-26T08:29:08.035Z,13.23
2022-08-26T08:31:56.628Z,13.90
2022-08-26T08:34:24.824Z,13.27
2022-08-26T08:36:53.674Z,13.53
2022-08-26T08:39:22.432Z,13.47
2022-08-26T08:42:16.096Z,13.57
2022-08-26T08:44:51.952Z,13.03
2022-08-26T08:47:35.928Z,13.53
2022-08-26T08:50:26.115Z,13.90
2022-08-26T08:53:18.148Z,13.60
2022-08-26T08:56:17.310Z,13.13
2022-08-26T08:59:07.692Z,13.37
2022-08-26T09:01:55.805Z,13.67
2022-08-26T09:04:40.993Z,13.50
2022-08-26T09:07:13.697Z,14.50
2022-08-26T09:09:55.748Z,13.80
2022-08-26T09:12:30.096Z,14.47
2022-08-26T09:15:20.612Z,14.50
2022-08-26T09:18:11.023Z,13.23
2022-08-26T09:20:54.283Z,14.30
2022-08-26T09:23:21.592Z,13.97
2022-08-26T09:28:29.458Z,14.73
2022-08-26T09:31:23.862Z,14.67
2022-08-26T09:34:10.504Z,14.47
2022-08-26T09:36:42.096Z,14.80
2022-08-26T09:39:24.340Z,14.60
2022-08-26T09:42:25.449Z,14.13
2022-08-26T09:45:10.574Z,13.67
2022-08-26T09:47:40.732Z,14.13
2022-08-26T09:50:28.966Z,14.60
2022-08-26T09:53:09.965Z,13.40
2022-08-26T09:55:46.028Z,14.87
2022-08-26T09:58:15.140Z,13.70
2022-08-26T10:00:56.757Z,13.27
2022-08-26T10:03:31.378Z,12.93
2022-08-26T10:06:21.671Z,13.33
2022-08-26T10:09:08.361Z,14.23
2022-08-26T10:11:51.765Z,13.23
2022-08-26T10:14:39.867Z,13.33
2022-08-26T10:17:26.706Z,13.93
2022-08-26T10:20:22.716Z,13.80
2022-08-26T10:23:01.721Z,13.87
2022-08-26T10:25:37.391Z,13.60
2022-08-26T10:28:35.653Z,13.20
2022-08-26T10:31:27.889Z,13.47
2022-08-26T10:33:58.800Z,13.37
2022-08-26T10:37:13.522Z,13.77
2022-08-26T10:39:43.909Z,13.33
2022-08-26T10:42:38.131Z,13.10
2022-08-26T10:45:15.182Z,13.53
2022-08-26T10:47:50.527Z,13.47
2022-08-26T10:50:18.909Z,13.60
2022-08-26T10:53:08.762Z,13.30
2022-08-26T10:56:00.272Z,13.80
2022-08-26T10:58:38.644Z,13.60
2022-08-26T11:01:40.840Z,14.13
2022-08-26T11:04:16.923Z,14.07
2022-08-26T11:06:46.938Z,13.67
2022-08-26T11:09:45.005Z,13.67
2022-08-26T11:12:37.362Z,14.33
2022-08-26T11:15:13.611Z,14.20
2022-08-26T11:17:46.522Z,14.13
2022-08-26T11:20:32.312Z,14.07
2022-08-26T11:23:27.238Z,13.63
2022-08-26T11:25:59.736Z,13.77
2022-08-26T11:28:45.086Z,13.73
2022-08-26T11:31:37.906Z,13.57
2022-08-26T11:34:08.791Z,13.83
2022-08-26T11:36:46.790Z,13.50
2022-08-26T11:39:28.951Z,13.40
2022-08-26T11:42:15.701Z,13.77
2022-08-26T11:44:49.390Z,13.63
2022-08-26T11:47:24.996Z,13.37
2022-08-26T11:50:17.706Z,13.60
2022-08-26T11:52:59.185Z,14.43
2022-08-26T11:55:26.193Z,13.90
2022-08-26T11:58:00.120Z,13.70
2022-08-26T12:00:31.433Z,14.10
2022-08-26T12:03:05.721Z,13.50
2022-08-26T12:05:43.430Z,14.53
2022-08-26T12:08:24.833Z,14.50
2022-08-26T12:11:09.840Z,13.43
2022-08-26T12:13:39.243Z,13.83
2022-08-26T12:16:07.623Z,11.63
2022-08-26T12:18:37.834Z,14.37
2022-08-26T12:21:26.680Z,14.37
2022-08-26T12:23:56.980Z,14.23
2022-08-26T12:26:42.013Z,14.13
2022-08-26T12:29:26.828Z,15.03
2022-08-26T12:32:17.499Z,15.47
2022-08-26T12:34:47.335Z,15.30
2022-08-26T12:37:15.539Z,14.70
2022-08-26T12:39:44.950Z,15.77
2022-08-26T12:42:17.345Z,14.90
2022-08-26T12:45:03.790Z,15.20
2022-08-26T12:47:43.501Z,15.43
2022-08-26T12:50:32.502Z,15.73
2022-08-26T12:53:11.377Z,14.63
2022-08-26T12:55:51.672Z,15.33
2022-08-26T12:58:18.555Z,15.17
2022-08-26T13:00:54.218Z,14.87
2022-08-26T13:03:45.376Z,14.90
2022-08-26T13:06:15.597Z,15.13
2022-08-26T13:09:00.299Z,14.77
2022-08-26T13:11:29.063Z,15.07
2022-08-26T13:14:07.593Z,15.17
2022-08-26T13:16:36.176Z,14.63
2022-08-26T13:19:10.055Z,15.50
2022-08-26T13:21:58.082Z,15.80
2022-08-26T13:24:24.998Z,15.13
2022-08-26T13:26:52.049Z,15.83
2022-08-26T13:29:19.563Z,15.40
2022-08-26T13:31:48.056Z,15.07
2022-08-26T13:34:19.179Z,15.97
2022-08-26T13:36:47.534Z,15.70
2022-08-26T13:39:14.407Z,15.13
2022-08-26T13:41:42.341Z,15.47
2022-08-26T13:44:10.429Z,15.53
2022-08-26T13:46:37.423Z,15.00
2022-08-26T13:49:04.419Z,15.33
2022-08-26T13:51:31.745Z,15.27
2022-08-26T13:53:59.124Z,15.50
2022-08-26T13:56:29.619Z,15.80
2022-08-26T13:58:58.074Z,15.07
2022-08-26T14:01:26.140Z,14.90
2022-08-26T14:03:53.222Z,14.83
2022-08-26T14:06:20.842Z,14.87
2022-08-26T14:08:48.608Z,14.67
2022-08-26T14:11:15.653Z,14.87
2022-08-26T14:13:42.762Z,15.10
2022-08-26T14:16:16.075Z,15.33
2022-08-26T14:18:47.344Z,15.20
2022-08-26T14:21:17.116Z,14.90
2022-08-26T14:23:44.033Z,15.27
2022-08-26T14:26:11.969Z,14.80
2022-08-26T14:28:59.754Z,15.03
2022-08-26T14:31:29.403Z,15.13
2022-08-26T14:34:03.831Z,15.77
2022-08-26T14:36:32.517Z,14.60
2022-08-26T14:39:07.225Z,14.97
2022-08-26T14:41:38.232Z,14.27
2022-08-26T14:44:10.326Z,14.07
2022-08-26T14:46:46.085Z,14.10
2022-08-26T14:49:13.768Z,14.10
2022-08-26T14:51:41.273Z,15.00
2022-08-26T14:54:11.913Z,13.83
2022-08-26T14:56:48.604Z,13.53
2022-08-26T14:59:18.126Z,13.63
2022-08-26T15:01:45.726Z,13.87
2022-08-26T15:04:13.252Z,13.90
2022-08-26T15:06:40.554Z,14.00
2022-08-26T15:09:08.236Z,14.77
2022-08-26T15:11:35.169Z,14.20
2022-08-26T15:14:02.699Z,14.10
2022-08-26T15:16:30.560Z,13.97
2022-08-26T15:18:58.045Z,13.77
2022-08-26T15:21:26.231Z,14.33
2022-08-26T15:23:54.164Z,15.10
2022-08-26T15:26:22.361Z,14.37
2022-08-26T15:28:49.812Z,14.67
2022-08-26T15:31:17.175Z,14.43
2022-08-26T15:33:44.252Z,14.30
2022-08-26T15:36:12.038Z,14.90
2022-08-26T15:38:42.420Z,14.40
2022-08-26T15:41:10.351Z,13.73
2022-08-26T15:43:38.377Z,13.93
2022-08-26T15:46:10.417Z,14.00
2022-08-26T15:48:38.412Z,13.27
2022-08-26T15:51:07.157Z,13.63
2022-08-26T15:53:35.673Z,14.10
2022-08-26T15:56:02.829Z,13.43
2022-08-26T15:58:30.250Z,13.40
2022-08-26T16:00:57.504Z,12.87
2022-08-26T16:03:25.917Z,13.87
2022-08-26T16:05:53.561Z,13.83
2022-08-26T16:08:20.936Z,13.70
2022-08-26T16:10:50.529Z,13.53
2022-08-26T16:13:19.961Z,12.57
2022-08-26T16:15:49.870Z,12.80
2022-08-26T16:18:17.199Z,12.77
2022-08-26T16:21:12.391Z,13.07
2022-08-26T16:23:37.472Z,12.90
2022-08-26T16:26:12.163Z,12.90
2022-08-26T16:28:39.745Z,12.67
2022-08-26T16:31:08.333Z,12.97
2022-08-26T16:33:35.347Z,13.20
2022-08-26T16:36:02.408Z,13.60
2022-08-26T16:38:29.485Z,12.87
2022-08-26T16:40:56.666Z,13.00
2022-08-26T16:43:24.147Z,13.23
2022-08-26T16:45:51.183Z,12.93
2022-08-26T16:48:18.224Z,12.53
2022-08-26T16:50:45.307Z,12.93
2022-08-26T16:55:45.934Z,12.70
2022-08-26T16:58:12.944Z,13.20
2022-08-26T17:00:39.993Z,12.77
2022-08-26T17:03:07.054Z,12.73
2022-08-26T17:05:34.298Z,13.07
2022-08-26T17:08:01.163Z,12.70
2022-08-26T17:10:29.567Z,13.00
2022-08-26T17:12:56.805Z,13.17
2022-08-26T17:15:23.933Z,12.77
2022-08-26T17:17:54.765Z,13.00
2022-08-26T17:20:23.847Z,12.37
2022-08-26T17:22:52.569Z,12.33
2022-08-26T17:25:29.343Z,12.87
2022-08-26T17:30:29.742Z,13.20
2022-08-26T17:32:58.096Z,12.90
2022-08-26T17:35:26.584Z,12.90
2022-08-26T17:37:56.166Z,13.23
2022-08-26T17:40:25.523Z,13.17
2022-08-26T17:42:52.593Z,12.80
2022-08-26T17:47:53.772Z,13.80
2022-08-26T17:50:21.297Z,14.00
2022-08-26T17:52:48.337Z,13.83
2022-08-26T17:55:18.102Z,14.33
2022-08-26T17:57:53.420Z,14.70
2022-08-26T18:00:23.525Z,14.37
2022-08-26T18:02:50.462Z,13.70
2022-08-26T18:05:18.089Z,13.97
2022-08-26T18:07:45.216Z,13.23
2022-08-26T18:10:15.463Z,13.53
2022-08-26T18:12:42.744Z,13.03
2022-08-26T18:15:11.502Z,13.20
2022-08-26T18:17:39.910Z,13.53
2022-08-26T18:20:09.601Z,13.23
2022-08-26T18:22:36.780Z,13.03
2022-08-26T18:25:05.398Z,13.33
2022-08-26T18:27:32.573Z,13.47
2022-08-26T18:30:00.065Z,13.07
2022-08-26T18:32:27.199Z,12.70
2022-08-26T18:34:54.136Z,13.17
2022-08-26T18:37:21.114Z,14.17
2022-08-26T18:39:48.695Z,14.43
2022-08-26T18:42:15.658Z,14.10
2022-08-26T18:44:42.530Z,14.70
2022-08-26T18:47:09.610Z,14.40
2022-08-26T18:49:36.588Z,13.83
2022-08-26T18:52:04.340Z,13.10
2022-08-26T18:54:31.361Z,13.13
2022-08-26T18:56:58.718Z,13.20
2022-08-26T18:59:29.684Z,13.33
2022-08-26T19:01:57.917Z,12.93
2022-08-26T19:04:25.196Z,12.23
2022-08-26T19:06:53.123Z,12.97
2022-08-26T19:09:20.948Z,13.87
2022-08-26T19:11:49.659Z,12.97
2022-08-26T19:14:17.740Z,13.37
2022-08-26T19:16:48.376Z,14.20
2022-08-26T19:19:15.829Z,13.37
2022-08-26T19:21:43.091Z,13.40
2022-08-26T19:24:15.601Z,12.97
2022-08-26T19:26:57.973Z,14.00
2022-08-26T19:29:28.879Z,14.20
2022-08-26T19:31:56.605Z,13.30
2022-08-26T19:34:24.155Z,13.43
2022-08-26T19:36:53.239Z,13.43
2022-08-26T19:39:21.292Z,12.87
2022-08-26T19:41:48.816Z,13.63
2022-08-26T19:44:37.345Z,13.23
2022-08-26T19:47:05.885Z,13.67
2022-08-26T19:49:33.567Z,14.10
2022-08-26T19:52:02.414Z,13.67
2022-08-26T19:54:29.332Z,13.90
2022-08-26T19:56:56.393Z,14.17
2022-08-26T19:59:23.220Z,13.70
2022-08-26T20:02:00.481Z,14.10
2022-08-26T20:04:30.250Z,14.17
2022-08-26T20:07:00.231Z,14.00
2022-08-26T20:09:32.703Z,13.60
2022-08-26T20:12:00.363Z,13.47
2022-08-26T20:14:28.371Z,13.87
2022-08-26T20:16:55.834Z,14.20
2022-08-26T20:19:41.504Z,14.00
2022-08-26T20:22:08.784Z,14.13
2022-08-26T20:24:35.996Z,14.30
2022-08-26T20:27:07.673Z,14.90
2022-08-26T20:29:35.880Z,13.97
2022-08-26T20:32:03.357Z,14.27
2022-08-26T20:34:32.386Z,14.27
2022-08-26T20:36:59.663Z,14.53
2022-08-26T20:39:29.597Z,14.57
2022-08-26T20:41:58.011Z,14.37
2022-08-26T20:44:25.688Z,14.47
2022-08-26T20:46:53.229Z,14.20
2022-08-26T20:49:20.193Z,14.53
2022-08-26T20:51:51.480Z,14.70
2022-08-26T20:54:27.509Z,13.90
2022-08-26T20:56:56.965Z,13.90
2022-08-26T20:59:24.468Z,14.40
2022-08-26T21:01:51.354Z,14.63
2022-08-26T21:04:21.147Z,14.13
2022-08-26T21:06:52.323Z,14.77
2022-08-26T21:09:22.953Z,13.80
2022-08-26T21:11:50.474Z,13.47
2022-08-26T21:14:18.786Z,13.47
2022-08-26T21:16:46.733Z,14.00
2022-08-26T21:19:15.584Z,13.90
2022-08-26T21:21:42.610Z,14.00
2022-08-26T21:24:09.561Z,14.03
2022-08-26T21:26:37.161Z,13.43
2022-08-26T21:29:04.339Z,13.40
2022-08-26T21:31:32.232Z,13.60
2022-08-26T21:33:59.810Z,12.90
2022-08-26T21:36:27.103Z,12.40
2022-08-26T21:38:57.184Z,12.37
2022-08-26T21:41:24.495Z,12.70
2022-08-26T21:43:53.676Z,12.77
2022-08-26T21:46:22.708Z,12.90
2022-08-26T21:48:52.211Z,12.77
2022-08-26T21:51:21.368Z,13.30
2022-08-26T21:53:48.569Z,13.93
2022-08-26T21:56:18.080Z,13.30
2022-08-26T21:58:46.306Z,13.83
2022-08-26T22:01:15.867Z,13.83
2022-08-26T22:03:47.316Z,13.97
2022-08-26T22:06:19.628Z,13.70
2022-08-26T22:08:46.892Z,14.40
2022-08-26T22:11:14.400Z,13.60
2022-08-26T22:13:42.897Z,13.80
2022-08-26T22:16:11.346Z,13.73
2022-08-26T22:18:39.034Z,14.20
2022-08-26T22:21:08.757Z,14.13
2022-08-26T22:23:37.533Z,13.50
2022-08-26T22:26:06.747Z,14.80
2022-08-26T22:28:33.988Z,14.13
2022-08-26T22:31:02.006Z,14.30
2022-08-26T22:33:29.477Z,13.53
2022-08-26T22:35:56.405Z,13.33
2022-08-26T22:38:24.016Z,13.50
2022-08-26T22:40:56.571Z,13.57
2022-08-26T22:43:28.770Z,13.90
2022-08-26T22:45:56.685Z,13.40
2022-08-26T22:48:26.510Z,13.40
2022-08-26T22:51:00.023Z,13.43
2022-08-26T22:53:27.430Z,13.40
2022-08-26T22:55:54.484Z,13.57
2022-08-26T22:58:30.223Z,13.00
2022-08-26T23:00:59.338Z,13.43
2022-08-26T23:03:27.680Z,13.47
2022-08-26T23:05:55.627Z,13.37
2022-08-26T23:08:23.647Z,12.80
2022-08-26T23:10:51.838Z,13.20
2022-08-26T23:13:20.114Z,13.30
2022-08-26T23:15:47.134Z,13.33
2022-08-26T23:18:15.351Z,13.03
2022-08-26T23:20:42.912Z,13.03
2022-08-26T23:23:09.836Z,13.13
2022-08-26T23:25:36.984Z,13.10
2022-08-26T23:28:05.362Z,12.97
2022-08-26T23:30:33.115Z,13.27
2022-08-26T23:33:00.460Z,13.43
2022-08-26T23:35:28.721Z,13.97
2022-08-26T23:37:57.819Z,13.20
2022-08-26T23:40:28.237Z,13.23
2022-08-26T23:42:57.160Z,12.83
2022-08-26T23:45:25.621Z,13.00
2022-08-26T23:47:54.035Z,13.80
2022-08-26T23:50:23.446Z,13.43
2022-08-26T23:53:09.085Z,13.43
2022-08-26T23:55:37.413Z,13.63
2022-08-26T23:58:05.426Z,13.70
